Time;durP1;ratioP1;P1;durP2;ratioP2;P2;SDS_P1;SDS_P2;PMS_P1;PMS_P2;Temp;Humidity;BMP_temperature;BMP_pressure;BME280_temperature;BME280_humidity;BME280_pressure;Samples;Min_cycle;Max_cycle;Signal;HPM_P1;HPM_P2
2021/08/04 00:02:05;;;;;;;7.57;2.65;;;9.10;99.90;;;;;;4990526;28;20212;-82
2021/08/04 00:04:30;;;;;;;0.80;0.80;;;9.20;99.90;;;;;;4975606;28;20204;-82
2021/08/04 00:06:56;;;;;;;0.60;0.60;;;9.30;99.90;;;;;;4979693;28;20209;-82
2021/08/04 00:09:22;;;;;;;0.60;0.60;;;9.50;99.90;;;;;;4965132;28;20239;-81
2021/08/04 00:11:47;;;;;;;0.60;0.60;;;9.60;99.90;;;;;;4976217;28;20207;-83
2021/08/04 00:14:13;;;;;;;0.70;0.70;;;9.60;99.90;;;;;;4976623;28;20204;-82
2021/08/04 00:16:39;;;;;;;0.70;0.70;;;9.70;99.90;;;;;;4974222;28;20218;-82
2021/08/04 00:19:05;;;;;;;0.60;0.60;;;9.80;99.90;;;;;;4990745;28;20694;-82
2021/08/04 00:21:30;;;;;;;0.63;0.63;;;9.80;99.90;;;;;;4976446;28;20208;-82
2021/08/04 00:23:56;;;;;;;0.60;0.60;;;9.80;99.90;;;;;;4973309;28;20197;-83
2021/08/04 00:26:22;;;;;;;0.60;0.60;;;9.90;99.90;;;;;;4973882;28;20219;-82
2021/08/04 00:28:48;;;;;;;0.60;0.60;;;9.90;99.90;;;;;;4990532;28;20224;-82
2021/08/04 00:31:13;;;;;;;0.60;0.60;;;9.90;99.90;;;;;;4990247;28;20196;-82
2021/08/04 00:33:39;;;;;;;0.60;0.60;;;9.90;99.90;;;;;;4975106;28;20676;-83
2021/08/04 00:36:05;;;;;;;2.78;0.98;;;10.00;99.90;;;;;;4974001;28;20231;-82
2021/08/04 00:38:31;;;;;;;1.08;1.05;;;10.00;99.90;;;;;;4973651;28;20574;-82
2021/08/04 00:40:57;;;;;;;0.60;0.60;;;10.10;99.90;;;;;;4975460;28;20212;-82
2021/08/04 00:43:23;;;;;;;0.80;0.80;;;10.10;99.90;;;;;;4972152;28;20220;-82
2021/08/04 00:45:49;;;;;;;0.60;0.60;;;10.10;99.90;;;;;;4975167;28;20243;-82
2021/08/04 00:48:16;;;;;;;0.70;0.70;;;10.10;99.90;;;;;;4975689;28;20244;-82
2021/08/04 00:50:42;;;;;;;0.52;0.52;;;10.10;99.90;;;;;;4988745;28;20196;-82
2021/08/04 00:53:37;;;;;;;0.60;0.60;;;10.10;99.90;;;;;;4974929;28;20694;-82
2021/08/04 00:56:08;;;;;;;0.70;0.70;;;10.10;99.90;;;;;;4970150;28;20239;-82
2021/08/04 00:58:42;;;;;;;0.60;0.60;;;10.00;99.90;;;;;;4973522;28;20215;-82
2021/08/04 01:01:21;;;;;;;0.75;0.75;;;10.00;99.90;;;;;;4988819;28;20204;-78
2021/08/04 01:03:52;;;;;;;2.25;1.70;;;10.00;99.90;;;;;;5000746;23;20228;-70
2021/08/04 01:06:46;;;;;;;0.60;0.60;;;9.90;99.90;;;;;;4976246;28;20204;-71
2021/08/04 01:09:12;;;;;;;0.70;0.70;;;9.80;99.90;;;;;;4974660;28;20537;-71
2021/08/04 01:11:44;;;;;;;0.65;0.65;;;9.70;99.90;;;;;;4987510;28;20278;-70
2021/08/04 01:14:14;;;;;;;0.60;0.60;;;9.70;99.90;;;;;;4974106;28;20204;-70
2021/08/04 01:16:46;;;;;;;0.60;0.60;;;9.70;99.90;;;;;;4973977;28;20219;-70
2021/08/04 01:19:33;;;;;;;0.60;0.60;;;9.70;99.90;;;;;;4975159;28;20603;-70
2021/08/04 01:22:21;;;;;;;0.70;0.70;;;9.70;99.90;;;;;;4973922;28;20267;-70
2021/08/04 01:24:58;;;;;;;0.75;0.75;;;9.70;99.90;;;;;;4988712;28;20215;-70
2021/08/04 01:27:24;;;;;;;0.70;0.70;;;9.80;99.90;;;;;;4972651;28;20222;-70
2021/08/04 01:29:51;;;;;;;0.60;0.60;;;9.80;99.90;;;;;;4973853;28;20674;-70
2021/08/04 01:32:19;;;;;;;0.70;0.70;;;9.80;99.90;;;;;;4974053;28;20218;-70
2021/08/04 01:34:46;;;;;;;0.60;0.60;;;9.80;99.90;;;;;;4973658;28;20723;-70
2021/08/04 01:37:13;;;;;;;0.65;0.65;;;9.80;99.90;;;;;;4975142;28;20313;-70
2021/08/04 01:39:39;;;;;;;0.63;0.63;;;9.80;99.90;;;;;;4988331;28;20207;-69
2021/08/04 01:42:05;;;;;;;0.50;0.50;;;9.80;99.90;;;;;;4974692;28;20212;-71
2021/08/04 01:44:33;;;;;;;0.80;0.80;;;9.80;99.90;;;;;;4973062;28;20200;-70
2021/08/04 01:47:00;;;;;;;0.60;0.60;;;9.80;99.90;;;;;;4973255;28;20244;-70
2021/08/04 01:49:28;;;;;;;0.80;0.80;;;9.70;99.90;;;;;;4973361;28;20224;-69
2021/08/04 01:51:55;;;;;;;0.60;0.60;;;9.70;99.90;;;;;;4986487;28;20295;-70
2021/08/04 01:54:22;;;;;;;0.60;0.60;;;9.70;99.90;;;;;;4966914;28;20196;-70
2021/08/04 01:56:48;;;;;;;0.60;0.60;;;9.80;99.90;;;;;;4973379;28;20212;-69
2021/08/04 01:59:14;;;;;;;0.60;0.60;;;9.80;99.90;;;;;;4972044;28;20679;-70
2021/08/04 02:01:39;;;;;;;0.70;0.70;;;9.80;99.90;;;;;;4969797;28;20216;-69
2021/08/04 02:04:05;;;;;;;0.60;0.60;;;9.80;99.90;;;;;;4974602;28;20555;-70
2021/08/04 02:06:40;;;;;;;0.80;0.80;;;9.80;99.90;;;;;;4980277;28;20282;-70
2021/08/04 02:09:40;;;;;;;0.60;0.60;;;9.80;99.90;;;;;;4972002;28;20361;-70
2021/08/04 02:12:09;;;;;;;0.60;0.60;;;9.80;99.90;;;;;;4971741;28;20216;-69
2021/08/04 02:14:37;;;;;;;0.55;0.55;;;9.90;99.90;;;;;;4989159;28;20212;-70
2021/08/04 02:17:08;;;;;;;0.60;0.60;;;9.90;99.90;;;;;;4989506;28;20594;-70
2021/08/04 02:19:47;;;;;;;0.60;0.60;;;9.90;99.90;;;;;;4974320;28;20212;-69
2021/08/04 02:22:28;;;;;;;0.50;0.50;;;9.90;99.90;;;;;;4971675;28;20663;-70
2021/08/04 02:25:05;;;;;;;0.60;0.60;;;10.00;99.90;;;;;;4973198;28;20669;-70
2021/08/04 02:27:32;;;;;;;0.60;0.60;;;10.00;99.90;;;;;;4972841;28;20561;-70
2021/08/04 02:30:00;;;;;;;0.70;0.70;;;10.00;99.90;;;;;;4987740;28;20200;-70
2021/08/04 02:32:26;;;;;;;0.60;0.60;;;10.10;99.90;;;;;;4989125;28;20208;-70
2021/08/04 02:34:51;;;;;;;0.63;0.63;;;10.10;99.90;;;;;;4989225;28;20200;-70
2021/08/04 02:37:17;;;;;;;0.60;0.60;;;10.00;99.90;;;;;;4974011;28;20204;-70
2021/08/04 02:39:43;;;;;;;0.60;0.60;;;10.00;99.90;;;;;;4971330;28;20259;-69
2021/08/04 02:42:09;;;;;;;0.60;0.60;;;10.00;99.90;;;;;;4974314;28;20219;-71
2021/08/04 02:44:35;;;;;;;0.70;0.70;;;10.00;99.90;;;;;;4971560;28;20220;-71
2021/08/04 02:47:01;;;;;;;0.60;0.60;;;10.00;99.90;;;;;;5002373;28;20225;-70
2021/08/04 02:49:27;;;;;;;0.60;0.60;;;9.90;99.90;;;;;;4972525;28;20196;-70
2021/08/04 02:51:53;;;;;;;0.70;0.70;;;10.00;99.90;;;;;;4971524;28;20216;-70
2021/08/04 02:54:19;;;;;;;0.60;0.60;;;9.90;99.90;;;;;;4971499;28;20208;-69
2021/08/04 02:56:45;;;;;;;0.60;0.60;;;9.90;99.90;;;;;;4992191;28;20219;-69
2021/08/04 02:59:10;;;;;;;0.60;0.60;;;9.90;99.90;;;;;;4978489;28;20244;-70
2021/08/04 03:01:36;;;;;;;3.15;1.15;;;9.90;99.90;;;;;;4975731;28;20212;-70
2021/08/04 03:04:02;;;;;;;0.60;0.60;;;9.90;99.90;;;;;;4977160;28;20235;-70
2021/08/04 03:06:28;;;;;;;1.05;1.00;;;9.90;99.90;;;;;;4976943;28;20212;-70
2021/08/04 03:08:53;;;;;;;0.60;0.60;;;10.00;99.90;;;;;;4976304;28;20559;-70
2021/08/04 03:11:19;;;;;;;0.60;0.60;;;10.00;99.90;;;;;;4977631;28;20208;-71
2021/08/04 03:13:45;;;;;;;0.60;0.60;;;10.00;99.90;;;;;;4991004;28;20204;-70
2021/08/04 03:16:11;;;;;;;0.60;0.60;;;10.00;99.90;;;;;;4976129;28;20609;-70
2021/08/04 03:18:36;;;;;;;0.60;0.60;;;9.90;99.90;;;;;;4976173;28;20211;-70
2021/08/04 03:21:02;;;;;;;0.57;0.57;;;9.90;99.90;;;;;;4977502;28;20680;-70
2021/08/04 03:23:28;;;;;;;0.68;0.68;;;9.90;99.90;;;;;;4974560;28;20321;-70
2021/08/04 03:25:53;;;;;;;0.60;0.60;;;9.90;99.90;;;;;;4976022;28;20208;-70
2021/08/04 03:28:19;;;;;;;0.57;0.57;;;9.90;99.90;;;;;;4975637;28;20231;-71
2021/08/04 03:30:45;;;;;;;1.85;1.02;;;9.80;99.90;;;;;;4977106;28;20574;-70
2021/08/04 03:33:10;;;;;;;0.60;0.60;;;9.70;99.90;;;;;;4979353;28;20204;-71
2021/08/04 03:35:36;;;;;;;0.65;0.65;;;9.60;99.90;;;;;;4990584;28;20196;-69
2021/08/04 03:38:02;;;;;;;20.88;1.50;;;9.60;99.90;;;;;;4974659;28;20231;-72
2021/08/04 03:40:28;;;;;;;0.65;0.65;;;9.60;99.90;;;;;;4975603;28;20200;-71
2021/08/04 03:42:53;;;;;;;0.60;0.60;;;9.60;99.90;;;;;;4975427;28;20231;-72
2021/08/04 03:45:19;;;;;;;0.60;0.60;;;9.60;99.90;;;;;;4975504;28;20283;-72
2021/08/04 03:47:45;;;;;;;0.70;0.70;;;9.60;99.90;;;;;;4975597;28;20570;-72
2021/08/04 03:50:11;;;;;;;0.60;0.60;;;9.70;99.90;;;;;;4976903;28;20204;-69
2021/08/04 03:52:39;;;;;;;0.60;0.60;;;9.80;99.90;;;;;;4990445;28;20204;-71
2021/08/04 03:55:05;;;;;;;0.70;0.70;;;9.80;99.90;;;;;;4990466;28;20208;-71
2021/08/04 03:57:31;;;;;;;0.63;0.63;;;9.80;99.90;;;;;;4990158;28;20211;-71
2021/08/04 03:59:56;;;;;;;0.60;0.60;;;9.90;99.90;;;;;;4975334;28;20207;-71
2021/08/04 04:02:22;;;;;;;0.70;0.70;;;9.90;99.90;;;;;;4976194;28;20243;-71
2021/08/04 04:04:48;;;;;;;0.60;0.60;;;9.90;99.90;;;;;;4977033;28;20211;-71
2021/08/04 04:07:13;;;;;;;0.60;0.60;;;10.00;99.90;;;;;;4983436;28;20232;-71
2021/08/04 04:09:39;;;;;;;0.63;0.63;;;10.00;99.90;;;;;;4979657;28;20290;-71
2021/08/04 04:12:05;;;;;;;0.60;0.60;;;10.00;99.90;;;;;;4985827;28;20287;-71
2021/08/04 04:14:31;;;;;;;0.60;0.60;;;9.90;99.90;;;;;;4976534;28;20208;-71
2021/08/04 04:16:57;;;;;;;0.60;0.60;;;9.90;99.90;;;;;;4991119;28;20212;-71
2021/08/04 04:19:22;;;;;;;0.60;0.60;;;9.80;99.90;;;;;;4976230;28;20725;-71
2021/08/04 04:21:48;;;;;;;0.60;0.60;;;9.80;99.90;;;;;;4975118;28;20322;-72
2021/08/04 04:24:13;;;;;;;0.60;0.60;;;9.80;99.90;;;;;;4989735;28;20240;-71
2021/08/04 04:26:39;;;;;;;5.45;1.73;;;9.80;99.90;;;;;;4989525;28;20235;-72
2021/08/04 04:29:05;;;;;;;0.60;0.60;;;9.90;99.90;;;;;;4992028;28;20254;-72
2021/08/04 04:31:31;;;;;;;0.60;0.60;;;10.00;99.90;;;;;;4976283;28;20196;-72
2021/08/04 04:33:56;;;;;;;0.50;0.50;;;10.10;99.90;;;;;;4975008;28;20192;-71
2021/08/04 04:36:22;;;;;;;0.70;0.70;;;10.30;99.90;;;;;;4974630;28;20212;-71
2021/08/04 04:38:47;;;;;;;0.60;0.60;;;10.50;99.90;;;;;;4989540;28;20208;-71
2021/08/04 04:41:13;;;;;;;0.60;0.60;;;10.60;99.90;;;;;;4975675;28;20393;-71
2021/08/04 04:43:41;;;;;;;0.60;0.60;;;10.70;99.90;;;;;;4976037;28;20250;-71
2021/08/04 04:46:07;;;;;;;0.60;0.60;;;10.90;99.90;;;;;;4988045;28;20216;-72
2021/08/04 04:48:33;;;;;;;0.50;0.50;;;11.00;99.90;;;;;;4973993;28;20219;-71
2021/08/04 04:50:59;;;;;;;0.55;0.55;;;11.20;99.90;;;;;;4974666;28;20227;-71
2021/08/04 04:53:24;;;;;;;0.50;0.50;;;11.40;99.90;;;;;;4989240;28;20228;-69
2021/08/04 04:55:50;;;;;;;0.60;0.60;;;11.60;99.90;;;;;;4989764;28;20578;-72
2021/08/04 04:58:16;;;;;;;0.50;0.50;;;11.80;99.90;;;;;;4974431;28;20209;-70
2021/08/04 05:00:41;;;;;;;0.60;0.60;;;12.10;99.90;;;;;;4975297;28;20290;-72
2021/08/04 05:03:07;;;;;;;0.60;0.60;;;12.20;99.90;;;;;;4974555;28;20798;-71
2021/08/04 05:05:33;;;;;;;0.50;0.50;;;12.30;99.90;;;;;;4974185;28;20617;-72
2021/08/04 05:07:58;;;;;;;0.50;0.50;;;12.40;99.90;;;;;;4973136;28;20219;-71
2021/08/04 05:10:24;;;;;;;0.57;0.57;;;12.50;99.90;;;;;;4973840;28;20559;-70
2021/08/04 05:12:49;;;;;;;0.70;0.70;;;12.50;99.90;;;;;;4972965;28;20537;-71
2021/08/04 05:15:15;;;;;;;0.57;0.57;;;12.70;99.90;;;;;;4975546;28;20541;-71
2021/08/04 05:17:41;;;;;;;0.65;0.65;;;12.70;99.90;;;;;;4975234;28;20210;-73
2021/08/04 05:20:08;;;;;;;0.52;0.52;;;12.80;99.90;;;;;;4974581;28;20259;-73
2021/08/04 05:22:33;;;;;;;0.50;0.50;;;12.80;99.90;;;;;;4974459;28;20208;-72
2021/08/04 05:24:59;;;;;;;0.40;0.40;;;13.00;99.90;;;;;;4989214;28;20219;-72
2021/08/04 05:27:24;;;;;;;0.47;0.47;;;13.10;99.90;;;;;;4973819;28;20593;-72
2021/08/04 05:29:50;;;;;;;0.50;0.50;;;13.10;99.90;;;;;;4975107;28;20719;-72
2021/08/04 05:32:16;;;;;;;0.50;0.50;;;13.20;99.90;;;;;;4973641;28;20259;-72
2021/08/04 05:34:41;;;;;;;0.50;0.50;;;13.30;99.90;;;;;;4972119;28;20200;-72
2021/08/04 05:37:07;;;;;;;0.50;0.50;;;13.30;99.90;;;;;;4974924;28;20628;-72
2021/08/04 05:39:33;;;;;;;0.50;0.50;;;13.40;99.90;;;;;;4974733;28;20240;-70
2021/08/04 05:41:58;;;;;;;0.50;0.50;;;13.50;99.90;;;;;;4973596;28;20255;-70
2021/08/04 05:44:24;;;;;;;0.50;0.50;;;13.60;99.90;;;;;;4973381;28;20291;-70
2021/08/04 05:46:50;;;;;;;0.70;0.70;;;13.60;99.90;;;;;;4973624;28;20208;-69
2021/08/04 05:49:16;;;;;;;0.50;0.50;;;13.70;99.90;;;;;;4973534;28;20291;-69
2021/08/04 05:51:42;;;;;;;0.50;0.50;;;13.80;99.90;;;;;;4973301;28;20319;-69
2021/08/04 05:54:07;;;;;;;0.50;0.50;;;13.80;99.90;;;;;;4972156;28;20547;-69
2021/08/04 05:56:33;;;;;;;0.40;0.40;;;14.10;99.90;;;;;;4973235;28;20212;-69
2021/08/04 05:58:58;;;;;;;0.40;0.40;;;14.20;99.90;;;;;;4988428;28;20204;-70
2021/08/04 06:01:24;;;;;;;0.40;0.40;;;14.50;99.90;;;;;;4971479;28;20257;-71
2021/08/04 06:03:50;;;;;;;0.40;0.40;;;14.70;99.90;;;;;;4986560;28;20216;-71
2021/08/04 06:06:15;;;;;;;0.50;0.50;;;14.80;99.90;;;;;;4984290;28;20238;-70
2021/08/04 06:08:41;;;;;;;0.50;0.50;;;15.10;99.90;;;;;;5002075;28;20208;-72
2021/08/04 06:11:07;;;;;;;1.58;0.70;;;15.30;99.90;;;;;;4973267;28;20199;-71
2021/08/04 06:13:32;;;;;;;0.63;0.63;;;15.40;99.90;;;;;;4987949;28;20664;-72
2021/08/04 06:15:58;;;;;;;0.40;0.40;;;15.40;99.90;;;;;;4972941;28;20563;-72
2021/08/04 06:18:24;;;;;;;0.40;0.40;;;15.60;99.90;;;;;;4972684;28;20239;-71
2021/08/04 06:20:49;;;;;;;0.32;0.32;;;15.70;99.90;;;;;;4973081;28;20211;-69
2021/08/04 06:23:15;;;;;;;31.40;1.35;;;15.80;99.90;;;;;;4987572;28;20260;-70
2021/08/04 06:25:41;;;;;;;0.40;0.40;;;16.00;99.90;;;;;;4971483;28;20208;-70
2021/08/04 06:28:07;;;;;;;0.40;0.40;;;16.20;99.90;;;;;;4972804;28;20214;-69
2021/08/04 06:30:32;;;;;;;0.35;0.35;;;16.40;99.90;;;;;;4971781;28;20210;-70
2021/08/04 06:32:58;;;;;;;2.30;0.47;;;16.60;99.90;;;;;;4976356;28;20200;-70
2021/08/04 06:35:24;;;;;;;0.40;0.40;;;16.70;99.90;;;;;;4975580;28;20251;-70
2021/08/04 06:37:50;;;;;;;3.10;0.50;;;16.90;99.90;;;;;;4978343;28;20652;-70
2021/08/04 06:40:15;;;;;;;0.30;0.30;;;16.90;99.90;;;;;;4988842;28;20212;-71
2021/08/04 06:42:42;;;;;;;0.30;0.30;;;17.00;99.90;;;;;;4977967;28;20204;-70
2021/08/04 06:45:08;;;;;;;0.40;0.40;;;17.10;99.90;;;;;;4992689;28;20200;-70
2021/08/04 06:47:35;;;;;;;0.30;0.30;;;17.00;99.90;;;;;;4977968;28;20219;-70
2021/08/04 06:50:01;;;;;;;0.40;0.40;;;16.90;99.90;;;;;;4976924;28;20200;-70
2021/08/04 06:52:26;;;;;;;0.30;0.30;;;17.00;99.90;;;;;;4959681;28;20197;-70
2021/08/04 06:54:52;;;;;;;0.40;0.40;;;17.00;99.90;;;;;;4976730;28;20561;-70
2021/08/04 06:57:18;;;;;;;0.30;0.30;;;16.90;99.90;;;;;;4976515;28;20216;-70
2021/08/04 06:59:43;;;;;;;0.50;0.50;;;17.00;99.90;;;;;;4976950;28;20219;-70
2021/08/04 07:02:09;;;;;;;0.40;0.40;;;17.60;99.90;;;;;;4991017;28;20247;-72
2021/08/04 07:04:35;;;;;;;0.30;0.30;;;18.20;99.90;;;;;;4976214;28;20247;-72
2021/08/04 07:07:03;;;;;;;0.30;0.30;;;18.70;99.90;;;;;;4994528;28;20212;-70
2021/08/04 07:09:31;;;;;;;0.30;0.30;;;18.80;99.90;;;;;;4976112;28;20263;-70
2021/08/04 07:11:56;;;;;;;0.30;0.30;;;18.70;99.90;;;;;;4976539;28;20260;-71
2021/08/04 07:14:22;;;;;;;0.30;0.30;;;18.90;99.90;;;;;;4976234;28;20348;-70
2021/08/04 07:16:48;;;;;;;0.20;0.20;;;19.40;99.90;;;;;;4976419;28;20219;-71
2021/08/04 07:19:15;;;;;;;0.30;0.30;;;19.90;99.90;;;;;;4976240;28;20205;-71
2021/08/04 07:21:42;;;;;;;0.30;0.30;;;20.40;99.90;;;;;;4976382;28;20634;-72
2021/08/04 07:24:08;;;;;;;0.45;0.40;;;20.70;99.90;;;;;;4987870;28;20236;-71
2021/08/04 07:26:35;;;;;;;0.20;0.20;;;20.70;99.90;;;;;;4967514;28;20216;-72
2021/08/04 07:29:01;;;;;;;0.30;0.30;;;20.90;99.90;;;;;;4977714;28;20196;-71
2021/08/04 07:31:27;;;;;;;0.20;0.20;;;20.80;99.90;;;;;;4974746;28;20251;-73
2021/08/04 07:33:53;;;;;;;0.30;0.30;;;20.50;99.90;;;;;;4976429;28;20618;-71
2021/08/04 07:36:19;;;;;;;0.38;0.30;;;20.50;99.90;;;;;;4974760;28;20216;-73
2021/08/04 07:38:44;;;;;;;0.30;0.30;;;20.70;99.90;;;;;;4975876;28;20212;-71
2021/08/04 07:41:10;;;;;;;0.30;0.30;;;20.30;99.90;;;;;;4990798;28;20667;-71
2021/08/04 07:43:36;;;;;;;0.20;0.20;;;20.00;99.90;;;;;;4974625;28;20255;-71
2021/08/04 07:46:02;;;;;;;0.30;0.30;;;20.10;99.90;;;;;;4975913;28;20535;-71
2021/08/04 07:48:28;;;;;;;0.20;0.20;;;20.10;99.90;;;;;;4976307;28;20248;-72
2021/08/04 07:50:55;;;;;;;0.28;0.28;;;20.50;99.90;;;;;;4976243;28;20192;-72
2021/08/04 07:53:21;;;;;;;0.20;0.20;;;20.70;99.90;;;;;;4990771;28;20254;-72
2021/08/04 07:55:47;;;;;;;0.20;0.20;;;20.90;99.90;;;;;;4974793;28;20204;-72
2021/08/04 07:58:13;;;;;;;0.50;0.50;;;21.00;99.90;;;;;;4974322;28;20790;-71
2021/08/04 08:00:39;;;;;;;0.30;0.30;;;20.90;99.90;;;;;;4976719;28;20219;-72
2021/08/04 08:03:04;;;;;;;0.32;0.30;;;21.30;99.90;;;;;;4975478;28;20235;-71
2021/08/04 08:05:30;;;;;;;0.20;0.20;;;21.50;99.90;;;;;;4982535;28;20311;-72
2021/08/04 08:08:03;;;;;;;0.20;0.20;;;21.10;99.90;;;;;;4980854;28;20224;-71
2021/08/04 08:10:29;;;;;;;0.85;0.45;;;21.10;99.90;;;;;;4976501;28;20239;-72
2021/08/04 08:12:55;;;;;;;0.20;0.20;;;21.60;99.90;;;;;;4976943;28;20200;-72
2021/08/04 08:15:21;;;;;;;0.30;0.30;;;21.90;99.90;;;;;;4975278;28;20287;-73
2021/08/04 08:17:46;;;;;;;0.20;0.20;;;22.20;99.90;;;;;;4975362;28;20208;-73
2021/08/04 08:20:13;;;;;;;0.20;0.20;;;22.40;99.90;;;;;;4990356;28;20218;-72
2021/08/04 08:22:39;;;;;;;0.20;0.20;;;22.50;99.90;;;;;;4973850;28;20265;-72
2021/08/04 08:25:06;;;;;;;0.40;0.40;;;22.40;99.90;;;;;;4973847;28;20291;-71
2021/08/04 08:27:32;;;;;;;0.38;0.30;;;22.30;99.90;;;;;;4974939;28;20212;-72
2021/08/04 08:29:57;;;;;;;0.43;0.43;;;22.40;99.60;;;;;;4976566;28;20196;-71
2021/08/04 08:32:26;;;;;;;0.20;0.20;;;22.80;99.90;;;;;;4974847;28;20270;-71
2021/08/04 08:34:53;;;;;;;0.28;0.28;;;23.00;99.30;;;;;;4974907;28;20632;-72
2021/08/04 08:37:18;;;;;;;0.10;0.10;;;23.10;98.30;;;;;;4974782;28;20204;-72
2021/08/04 08:39:44;;;;;;;0.20;0.20;;;23.20;95.40;;;;;;4975398;28;20210;-72
2021/08/04 08:42:10;;;;;;;0.73;0.73;;;22.90;97.20;;;;;;4973625;28;20196;-71
2021/08/04 08:44:36;;;;;;;0.60;0.60;;;23.20;96.90;;;;;;4973906;28;20204;-72
2021/08/04 08:47:10;;;;;;;0.20;0.20;;;23.50;94.10;;;;;;4975396;28;20212;-72
2021/08/04 08:49:37;;;;;;;0.10;0.10;;;23.60;95.70;;;;;;4972744;28;20231;-72
2021/08/04 08:52:04;;;;;;;0.20;0.20;;;23.70;95.10;;;;;;4990174;28;20633;-72
2021/08/04 08:54:29;;;;;;;0.20;0.20;;;23.80;93.90;;;;;;4975573;28;20259;-72
2021/08/04 08:56:55;;;;;;;0.30;0.30;;;23.80;93.30;;;;;;4974452;28;20695;-72
2021/08/04 08:59:22;;;;;;;0.10;0.10;;;24.00;94.00;;;;;;4975796;28;20231;-73
2021/08/04 09:01:49;;;;;;;0.15;0.15;;;24.00;92.70;;;;;;4975723;28;20204;-72
2021/08/04 09:04:18;;;;;;;0.63;0.28;;;24.10;92.80;;;;;;4974465;28;20224;-75
2021/08/04 09:06:46;;;;;;;0.10;0.10;;;24.00;89.80;;;;;;4974883;28;20200;-72
2021/08/04 09:09:32;;;;;;;0.20;0.20;;;24.10;92.00;;;;;;4990463;28;20193;-73
2021/08/04 09:12:09;;;;;;;0.20;0.20;;;24.50;92.10;;;;;;4975549;28;20212;-73
2021/08/04 09:14:38;;;;;;;0.20;0.20;;;24.30;86.90;;;;;;4975422;28;20203;-73
2021/08/04 09:17:08;;;;;;;0.32;0.30;;;24.00;86.40;;;;;;4973023;28;20283;-73
2021/08/04 09:19:39;;;;;;;0.20;0.20;;;23.80;89.80;;;;;;4974148;28;20675;-73
2021/08/04 09:22:08;;;;;;;0.10;0.10;;;24.00;93.10;;;;;;4990221;28;20239;-73
2021/08/04 09:25:03;;;;;;;0.20;0.20;;;24.00;91.30;;;;;;4972987;28;20612;-73
2021/08/04 09:27:52;;;;;;;0.10;0.10;;;24.50;90.30;;;;;;4989100;28;20214;-72
2021/08/04 09:30:32;;;;;;;0.10;0.10;;;24.50;91.80;;;;;;4973598;28;20208;-73
2021/08/04 09:33:14;;;;;;;0.20;0.20;;;24.00;92.40;;;;;;4975841;28;20636;-73
2021/08/04 09:35:49;;;;;;;0.20;0.20;;;23.70;90.70;;;;;;4972565;28;20215;-73
2021/08/04 09:38:15;;;;;;;0.10;0.10;;;23.90;86.80;;;;;;4974932;28;20214;-73
2021/08/04 09:40:42;;;;;;;0.20;0.20;;;24.30;85.90;;;;;;4973556;28;20234;-71
2021/08/04 09:43:08;;;;;;;0.20;0.20;;;24.20;90.00;;;;;;4988989;28;20263;-72
2021/08/04 09:45:47;;;;;;;0.20;0.20;;;24.30;87.50;;;;;;4989143;28;20546;-73
2021/08/04 09:48:16;;;;;;;0.10;0.10;;;24.50;86.60;;;;;;4955699;28;20541;-72
2021/08/04 09:50:55;;;;;;;0.20;0.20;;;24.70;85.70;;;;;;4973734;28;20346;-72
2021/08/04 09:53:29;;;;;;;0.10;0.10;;;24.90;83.00;;;;;;4972099;28;20243;-73
2021/08/04 09:56:10;;;;;;;0.13;0.13;;;25.00;85.70;;;;;;4971572;28;20208;-72
2021/08/04 09:58:38;;;;;;;0.10;0.10;;;25.10;81.50;;;;;;4973508;28;20223;-72
2021/08/04 10:01:05;;;;;;;0.10;0.10;;;25.20;86.40;;;;;;4958475;28;20653;-73
2021/08/04 10:03:32;;;;;;;0.20;0.20;;;25.50;83.30;;;;;;4973020;28;20671;-73
2021/08/04 10:05:58;;;;;;;0.10;0.10;;;25.50;80.60;;;;;;4982527;28;20655;-72
2021/08/04 10:08:23;;;;;;;0.10;0.10;;;25.20;83.60;;;;;;4973784;28;20214;-73
2021/08/04 10:10:54;;;;;;;0.10;0.10;;;25.30;87.40;;;;;;4974478;28;20200;-72
2021/08/04 10:13:26;;;;;;;0.10;0.10;;;25.60;90.00;;;;;;4973164;28;20208;-73
2021/08/04 10:15:54;;;;;;;0.10;0.10;;;26.10;85.30;;;;;;4973395;28;20648;-72
2021/08/04 10:18:23;;;;;;;0.10;0.10;;;26.30;86.20;;;;;;4971955;28;20390;-72
2021/08/04 10:20:53;;;;;;;0.10;0.10;;;26.50;79.10;;;;;;4973227;28;20278;-70
2021/08/04 10:23:19;;;;;;;0.10;0.10;;;26.80;82.80;;;;;;4971899;28;20239;-71
2021/08/04 10:25:47;;;;;;;0.22;0.20;;;26.80;80.60;;;;;;4973299;28;20569;-70
2021/08/04 10:28:14;;;;;;;0.10;0.10;;;26.80;79.70;;;;;;4973390;28;20212;-70
2021/08/04 10:30:42;;;;;;;0.10;0.10;;;26.60;74.20;;;;;;4973252;28;20211;-70
2021/08/04 10:33:08;;;;;;;0.10;0.10;;;26.30;78.00;;;;;;4973253;28;20200;-70
2021/08/04 10:35:36;;;;;;;0.10;0.10;;;25.30;77.00;;;;;;4988060;28;20200;-70
2021/08/04 10:38:29;;;;;;;0.10;0.10;;;24.50;76.80;;;;;;4973079;28;20252;-71
2021/08/04 10:41:20;;;;;;;0.10;0.10;;;23.80;81.30;;;;;;4970885;28;20702;-71
2021/08/04 10:43:49;;;;;;;0.10;0.10;;;23.90;84.80;;;;;;4973160;28;20208;-71
2021/08/04 10:49:05;;;;;;;0.20;0.20;;;24.50;83.10;;;;;;4973138;28;20215;-70
2021/08/04 10:51:58;;;;;;;0.20;0.20;;;24.00;81.80;;;;;;4974275;28;20647;-71
2021/08/04 10:54:24;;;;;;;0.20;0.20;;;23.50;85.40;;;;;;4986363;28;20247;-71
2021/08/04 10:56:53;;;;;;;0.13;0.13;;;23.10;85.50;;;;;;4974114;28;20215;-70
2021/08/04 10:59:25;;;;;;;0.20;0.20;;;22.70;89.80;;;;;;4975291;28;20645;-71
2021/08/04 11:01:54;;;;;;;0.20;0.20;;;22.50;91.80;;;;;;4972514;28;20204;-70
2021/08/04 11:04:26;;;;;;;0.20;0.20;;;22.20;91.90;;;;;;4973908;28;20213;-70
2021/08/04 11:07:07;;;;;;;0.52;0.52;;;21.90;92.50;;;;;;4976635;28;20262;-71
2021/08/04 11:09:34;;;;;;;0.57;0.57;;;21.60;91.50;;;;;;4972379;28;20678;-70
2021/08/04 11:12:02;;;;;;;0.20;0.20;;;21.60;94.70;;;;;;4972798;28;20236;-70
2021/08/04 11:14:49;;;;;;;0.38;0.38;;;21.70;96.00;;;;;;4988987;28;20267;-69
2021/08/04 11:17:22;;;;;;;0.20;0.20;;;21.90;95.60;;;;;;4973321;28;20713;-70
2021/08/04 11:20:09;;;;;;;0.43;0.32;;;22.80;93.60;;;;;;4976380;28;20292;-70
2021/08/04 11:22:35;;;;;;;0.65;0.32;;;23.30;92.20;;;;;;4977093;28;20677;-70
2021/08/04 11:25:05;;;;;;;0.10;0.10;;;24.00;92.40;;;;;;4992637;28;20208;-68
2021/08/04 11:27:33;;;;;;;0.20;0.20;;;24.10;91.00;;;;;;4974714;28;20743;-68
2021/08/04 11:29:59;;;;;;;0.30;0.30;;;23.70;90.90;;;;;;4976229;28;20578;-68
2021/08/04 11:32:28;;;;;;;0.10;0.10;;;23.50;92.20;;;;;;4977049;28;20200;-68
2021/08/04 11:34:54;;;;;;;0.17;0.17;;;23.70;93.10;;;;;;4977094;28;20212;-68
2021/08/04 11:37:20;;;;;;;0.35;0.35;;;24.00;90.80;;;;;;4975139;28;20618;-68
2021/08/04 11:39:57;;;;;;;1.25;0.75;;;24.80;91.50;;;;;;4976113;28;20722;-69
2021/08/04 11:42:24;;;;;;;0.20;0.20;;;25.30;90.70;;;;;;4974329;28;20214;-68
2021/08/04 11:44:50;;;;;;;0.15;0.15;;;25.50;89.20;;;;;;4990659;28;20258;-69
2021/08/04 11:47:16;;;;;;;0.20;0.20;;;25.00;84.30;;;;;;4977049;28;20208;-69
2021/08/04 11:49:46;;;;;;;0.30;0.30;;;24.80;84.30;;;;;;4975672;28;20293;-69
2021/08/04 11:52:25;;;;;;;0.20;0.20;;;25.10;82.40;;;;;;4977062;28;20232;-68
2021/08/04 11:54:50;;;;;;;0.20;0.20;;;25.40;84.30;;;;;;4975700;28;20227;-68
2021/08/04 11:57:25;;;;;;;0.10;0.10;;;26.10;82.70;;;;;;4975387;28;20224;-68
2021/08/04 11:59:59;;;;;;;0.10;0.10;;;26.50;78.10;;;;;;4975627;28;20203;-68
2021/08/04 12:02:29;;;;;;;0.10;0.10;;;26.50;77.50;;;;;;4974882;28;20266;-68
2021/08/04 12:04:56;;;;;;;0.20;0.20;;;26.90;72.50;;;;;;4978052;28;20667;-69
2021/08/04 12:07:27;;;;;;;0.13;0.13;;;26.80;79.00;;;;;;4985962;28;20204;-70
2021/08/04 12:10:02;;;;;;;0.20;0.20;;;27.00;83.00;;;;;;4986869;28;20615;-71
2021/08/04 12:12:34;;;;;;;0.20;0.20;;;27.30;75.60;;;;;;4964532;28;20301;-70
2021/08/04 12:15:00;;;;;;;0.10;0.10;;;27.30;76.50;;;;;;4974346;28;20577;-69
2021/08/04 12:17:34;;;;;;;0.17;0.17;;;27.30;77.70;;;;;;4975196;28;20216;-69
2021/08/04 12:20:20;;;;;;;0.20;0.20;;;27.10;77.30;;;;;;4975426;28;20210;-69
2021/08/04 12:22:57;;;;;;;0.20;0.20;;;26.90;74.90;;;;;;4976486;28;20202;-69
2021/08/04 12:25:23;;;;;;;0.30;0.20;;;26.50;72.70;;;;;;4975103;28;20212;-69
2021/08/04 12:27:52;;;;;;;0.30;0.30;;;26.40;75.20;;;;;;4975095;28;20258;-68
2021/08/04 12:30:25;;;;;;;0.20;0.20;;;26.30;76.60;;;;;;5000110;28;20204;-71
2021/08/04 12:33:03;;;;;;;0.32;0.32;;;26.40;77.00;;;;;;4974970;28;20225;-68
2021/08/04 12:36:10;;;;;;;0.10;0.10;;;26.10;78.70;;;;;;4974902;28;20207;-69
2021/08/04 12:38:42;;;;;;;0.80;0.32;;;26.60;74.10;;;;;;4974571;28;20239;-72
2021/08/04 12:41:10;;;;;;;0.28;0.28;;;26.40;72.80;;;;;;4974852;28;20207;-71
2021/08/04 12:43:41;;;;;;;0.10;0.10;;;26.60;75.10;;;;;;4990613;28;20203;-71
2021/08/04 12:46:10;;;;;;;0.63;0.40;;;26.80;77.70;;;;;;4974739;28;20203;-70
2021/08/04 12:48:48;;;;;;;0.10;0.10;;;26.90;73.30;;;;;;4974627;28;20258;-70
2021/08/04 12:51:20;;;;;;;0.10;0.10;;;27.50;73.00;;;;;;4974415;28;20258;-71
2021/08/04 12:53:59;;;;;;;0.10;0.10;;;27.80;74.40;;;;;;4974568;28;20510;-71
2021/08/04 12:56:36;;;;;;;0.10;0.10;;;27.50;69.30;;;;;;4974423;28;20215;-70
2021/08/04 12:59:12;;;;;;;0.20;0.20;;;27.40;71.50;;;;;;4974436;28;20199;-70
2021/08/04 13:01:42;;;;;;;0.28;0.28;;;27.40;74.20;;;;;;4987590;28;20218;-70